Weather forecast for Kursk, towing flights (Курск)

Russia, 209 m
N51.642, E36.228


Sounding

Red line — air temperature ˚C.
Blue line — thermal bubble temperature ˚C.
Green line — dew point temperature ˚C.
Wind speed is in meters per second.

Table forecast

GFS 0.25˚ model

temp. wind gust humid. clouds prec. press. hpbl
Fri22 00:00 -9 300.0 wnw 6 13 88 0 0.0 1011 510
03:00 -10 299.0 wnw 5 13 90 0 0.0 1012 473
06:00 -11 301.0 wnw 5 12 90 31 0.0 1013 529
09:00 -11 309.0 nw 5 12 90 41 0.0 1014 587
12:00 -8 328.0 nnw 6 9 84 63 0.1 1016 978
15:00 -7 342.0 nnw 6 8 82 81 0.3 1018 1099
18:00 -9 339.0 nnw 3 9 90 94 0.1 1020 438
21:00 -10 353.0 n 4 11 91 81 0.2 1024 557
 
Sat23 00:00 -11 1.0 n 4 12 91 49 0.0 1026 431
03:00 -12 2.0 n 4 11 92 37 0.0 1029 399
06:00 -12 6.0 n 4 11 92 45 0.0 1031 379
09:00 -13 14.0 nne 5 10 91 35 0.0 1034 344
12:00 -11 16.0 nne 4 7 90 12 0.0 1035 440
15:00 -10 359.0 n 4 6 89 34 0.0 1035 512
18:00 -12 336.0 nnw 3 5 93 38 0.0 1035 120
21:00 -14 317.0 nw 2 3 92 58 0.0 1036 53
 
Sun24 00:00 -13 275.0 w 2 4 90 93 0.0 1035 73
03:00 -11 264.0 w 4 8 89 93 0.0 1034 217
06:00 -10 259.0 w 4 11 91 95 0.1 1031 343
09:00 -7 271.0 w 5 10 94 97 0.4 1031 520
12:00 -4 274.0 w 5 8 93 100 0.4 1030 495
15:00 -2 279.0 w 4 7 94 97 0.5 1029 425
18:00 -2 285.0 wnw 4 9 95 97 0.1 1029 392
21:00 -1 298.0 wnw 4 9 95 97 0.2 1029 408
 
Mon25 00:00 -1 296.0 wnw 4 9 95 98 0.1 1028 431
03:00 -1 282.0 wnw 5 10 95 97 0.1 1027 373
06:00 -1 274.0 w 5 11 95 100 0.1 1025 421
09:00 -0 272.0 w 6 12 95 100 0.3 1023 481
12:00 1 289.0 wnw 6 13 96 100 0.2 1021 603
15:00 1 295.0 wnw 6 13 97 99 0.4 1019 653
18:00 1 316.0 nw 6 12 92 100 0.1 1018 732
21:00 -1 313.0 nw 5 13 89 88 0.1 1018 511
 
Tue26 00:00 -2 311.0 nw 5 13 93 39 0.0 1017 498
03:00 -4 304.0 nw 5 12 93 58 0.0 1016 404
06:00 -3 309.0 nw 5 11 94 100 0.0 1014 544
09:00 -2 295.0 wnw 4 9 93 100 0.2 1011 545
12:00 -1 266.0 w 4 7 94 100 0.5 1007 480
15:00 -1 254.0 wsw 4 6 96 100 2.0 1003 434
18:00 -1 286.0 wnw 2 4 97 100 1.5 1000 192
21:00 -2 14.0 nne 3 8 96 99 1.7 1001 285
 

0.015 s